createdAt,value
2023-03-06T00:00:37.238Z,17.30
2023-03-06T00:03:23.919Z,50.07
2023-03-06T00:06:08.902Z,31.60
2023-03-06T00:08:52.910Z,28.90
2023-03-06T00:11:37.210Z,25.57
2023-03-06T00:14:21.040Z,18.83
2023-03-06T00:17:05.226Z,17.80
2023-03-06T00:19:50.497Z,14.20
2023-03-06T00:22:34.649Z,15.77
2023-03-06T00:25:20.380Z,16.70
2023-03-06T00:28:04.338Z,14.40
2023-03-06T00:30:48.413Z,19.77
2023-03-06T00:33:32.490Z,21.37
2023-03-06T00:36:18.019Z,20.03
2023-03-06T00:39:02.303Z,19.83
2023-03-06T00:41:47.069Z,22.57
2023-03-06T00:44:31.854Z,19.57
2023-03-06T00:47:17.281Z,17.30
2023-03-06T00:50:01.570Z,15.67
2023-03-06T00:52:48.432Z,15.47
2023-03-06T00:55:33.664Z,14.40
2023-03-06T00:58:17.544Z,11.80
2023-03-06T01:01:01.362Z,11.43
2023-03-06T01:03:45.330Z,13.20
2023-03-06T01:06:30.410Z,12.40
2023-03-06T01:09:15.650Z,10.50
2023-03-06T01:12:00.211Z,11.00
2023-03-06T01:14:44.335Z,10.43
2023-03-06T01:17:28.324Z,10.17
2023-03-06T01:20:15.042Z,10.87
2023-03-06T01:22:59.423Z,8.30
2023-03-06T01:25:46.422Z,9.90
2023-03-06T01:28:31.053Z,8.33
2023-03-06T01:31:15.458Z,9.20
2023-03-06T01:33:59.564Z,8.73
2023-03-06T01:36:43.521Z,9.07
2023-03-06T01:39:29.073Z,9.37
2023-03-06T01:42:14.721Z,9.33
2023-03-06T01:45:02.330Z,9.50
2023-03-06T01:47:47.027Z,8.13
2023-03-06T01:50:31.097Z,9.13
2023-03-06T01:53:16.608Z,9.70
2023-03-06T01:56:00.857Z,9.17
2023-03-06T01:58:46.794Z,8.60
2023-03-06T02:01:31.884Z,8.73
2023-03-06T02:04:17.414Z,9.47
2023-03-06T02:07:05.042Z,8.97
2023-03-06T02:09:50.845Z,9.87
2023-03-06T02:12:35.321Z,9.33
2023-03-06T02:15:23.345Z,8.47
2023-03-06T02:18:07.322Z,9.53
2023-03-06T02:20:54.347Z,10.40
2023-03-06T02:23:52.488Z,10.63
2023-03-06T02:26:39.712Z,12.40
2023-03-06T02:29:26.557Z,14.27
2023-03-06T02:32:12.529Z,13.97
2023-03-06T02:34:58.832Z,13.97
2023-03-06T02:37:42.601Z,17.67
2023-03-06T02:40:26.899Z,18.23
2023-03-06T02:43:13.618Z,17.97
2023-03-06T02:45:57.867Z,14.03
2023-03-06T02:48:41.595Z,12.23
2023-03-06T02:51:25.836Z,14.23
2023-03-06T02:54:09.811Z,12.50
2023-03-06T02:56:54.007Z,12.70
2023-03-06T02:59:40.411Z,11.23
2023-03-06T03:02:25.334Z,13.67
2023-03-06T03:05:09.866Z,13.43
2023-03-06T03:07:59.085Z,11.40
2023-03-06T03:10:44.606Z,11.67
2023-03-06T03:13:30.948Z,11.10
2023-03-06T03:16:17.333Z,10.53
2023-03-06T03:19:01.916Z,11.07
2023-03-06T03:21:46.002Z,12.50
2023-03-06T03:24:30.289Z,10.90
2023-03-06T03:27:14.308Z,12.40
2023-03-06T03:29:59.323Z,11.53
2023-03-06T03:32:46.648Z,9.80
2023-03-06T03:35:30.647Z,9.93
2023-03-06T03:38:14.912Z,11.80
2023-03-06T03:40:59.205Z,10.63
2023-03-06T03:43:44.843Z,11.37
2023-03-06T03:46:29.535Z,10.77
2023-03-06T03:49:16.117Z,10.33
2023-03-06T03:52:01.560Z,9.43
2023-03-06T03:54:48.744Z,10.90
2023-03-06T03:57:33.014Z,10.60
2023-03-06T04:00:18.510Z,10.70
2023-03-06T04:03:12.636Z,9.83
2023-03-06T04:06:01.684Z,10.40
2023-03-06T04:08:45.832Z,9.73
2023-03-06T04:11:29.566Z,10.73
2023-03-06T04:14:13.892Z,9.93
2023-03-06T04:16:57.864Z,10.40
2023-03-06T04:19:42.371Z,12.17
2023-03-06T04:22:28.494Z,16.43
2023-03-06T04:25:12.859Z,14.10
2023-03-06T04:27:57.126Z,14.40
2023-03-06T04:30:41.334Z,12.60
2023-03-06T04:33:25.445Z,11.20
2023-03-06T04:36:24.856Z,10.00
2023-03-06T04:39:11.614Z,10.13
2023-03-06T04:41:55.766Z,11.53
2023-03-06T04:44:39.945Z,10.80
2023-03-06T04:47:24.085Z,11.50
2023-03-06T04:50:10.278Z,10.10
2023-03-06T04:52:54.574Z,10.87
2023-03-06T04:55:39.888Z,18.20
2023-03-06T04:58:25.704Z,10.40
2023-03-06T05:01:09.757Z,12.27
2023-03-06T05:03:53.687Z,9.80
2023-03-06T05:06:37.794Z,9.07
2023-03-06T05:09:21.669Z,7.73
2023-03-06T05:12:07.381Z,7.63
2023-03-06T05:14:51.280Z,8.37
2023-03-06T05:17:35.476Z,10.60
2023-03-06T05:20:19.552Z,7.40
2023-03-06T05:23:03.387Z,8.30
2023-03-06T05:25:47.052Z,11.73
2023-03-06T05:28:32.201Z,16.33
2023-03-06T05:31:15.995Z,12.63
2023-03-06T05:34:00.772Z,9.63
2023-03-06T05:36:44.979Z,9.47
2023-03-06T05:39:29.011Z,10.60
2023-03-06T05:42:13.074Z,8.10
2023-03-06T05:44:58.348Z,8.87
2023-03-06T05:47:42.250Z,8.43
2023-03-06T05:50:25.994Z,7.97
2023-03-06T05:53:09.811Z,10.30
2023-03-06T05:55:57.844Z,8.90
2023-03-06T05:58:41.751Z,9.13
2023-03-06T06:01:28.537Z,7.93
2023-03-06T06:04:12.529Z,8.03
2023-03-06T06:06:57.764Z,8.07
2023-03-06T06:09:41.911Z,7.53
2023-03-06T06:12:26.096Z,6.77
2023-03-06T06:15:10.505Z,6.60
2023-03-06T06:17:55.735Z,7.37
2023-03-06T06:20:39.740Z,7.10
2023-03-06T06:23:23.470Z,7.07
2023-03-06T06:26:09.727Z,7.30
2023-03-06T06:28:53.486Z,7.83
2023-03-06T06:31:37.913Z,7.07
2023-03-06T06:34:24.220Z,13.33
2023-03-06T06:37:08.361Z,12.00
2023-03-06T06:39:52.111Z,58.60
2023-03-06T06:42:39.901Z,7.27
2023-03-06T06:45:24.251Z,7.33
2023-03-06T06:48:08.369Z,7.47
2023-03-06T06:50:57.909Z,7.53
2023-03-06T06:53:41.711Z,8.70
2023-03-06T06:56:25.852Z,12.47
2023-03-06T06:59:16.556Z,14.60
2023-03-06T07:02:02.542Z,8.93
2023-03-06T07:05:02.135Z,12.17
2023-03-06T07:07:51.000Z,13.87
2023-03-06T07:10:35.700Z,17.37
2023-03-06T07:13:19.664Z,23.73
2023-03-06T07:16:03.526Z,9.27
2023-03-06T07:18:47.358Z,9.93
2023-03-06T07:21:31.423Z,11.93
2023-03-06T07:24:16.793Z,10.43
2023-03-06T07:27:00.640Z,8.00
2023-03-06T07:29:44.729Z,8.83
2023-03-06T07:32:28.779Z,12.37
2023-03-06T07:35:20.356Z,14.80
2023-03-06T07:38:04.818Z,8.53
2023-03-06T07:40:53.405Z,19.23
2023-03-06T07:43:37.160Z,10.17
2023-03-06T07:46:24.220Z,14.23
2023-03-06T07:49:08.056Z,11.00
2023-03-06T07:51:51.879Z,12.40
2023-03-06T07:54:35.643Z,17.03
2023-03-06T07:57:20.863Z,7.80
2023-03-06T08:00:06.212Z,7.27
2023-03-06T08:02:56.895Z,7.03
2023-03-06T08:05:40.801Z,6.67
2023-03-06T08:08:24.841Z,6.53
2023-03-06T08:11:09.933Z,5.90
2023-03-06T08:13:55.572Z,6.13
2023-03-06T08:16:39.492Z,6.37
2023-03-06T08:19:23.408Z,6.00
2023-03-06T08:22:07.830Z,6.57
2023-03-06T08:24:55.114Z,7.30
2023-03-06T08:27:39.082Z,6.63
2023-03-06T08:30:24.656Z,6.40
2023-03-06T08:33:08.590Z,6.30
2023-03-06T08:35:54.327Z,6.43
2023-03-06T08:38:38.086Z,6.60
2023-03-06T08:41:22.623Z,6.60
2023-03-06T08:44:06.958Z,7.30
2023-03-06T08:46:52.061Z,6.77
2023-03-06T08:49:36.266Z,8.20
2023-03-06T08:52:20.046Z,7.83
2023-03-06T08:55:04.411Z,7.77
2023-03-06T08:57:48.394Z,7.63
2023-03-06T09:00:32.323Z,8.13
2023-03-06T09:03:17.844Z,8.23
2023-03-06T09:06:01.667Z,9.37
2023-03-06T09:08:45.606Z,7.57
2023-03-06T09:11:29.950Z,8.73
2023-03-06T09:14:13.763Z,8.10
2023-03-06T09:16:57.790Z,12.40
2023-03-06T09:19:42.991Z,8.30
2023-03-06T09:22:26.917Z,9.23
2023-03-06T09:25:13.315Z,8.80
2023-03-06T09:28:10.479Z,7.47
2023-03-06T09:30:55.633Z,7.50
2023-03-06T09:33:39.863Z,7.47
2023-03-06T09:36:25.475Z,8.70
2023-03-06T09:39:10.113Z,6.57
2023-03-06T09:41:55.308Z,7.30
2023-03-06T09:44:43.354Z,7.53
2023-03-06T09:47:45.909Z,7.40
2023-03-06T09:50:41.777Z,6.90
2023-03-06T09:53:50.260Z,6.83
2023-03-06T09:56:36.908Z,7.40
2023-03-06T09:59:23.698Z,6.37
2023-03-06T10:02:17.079Z,7.27
2023-03-06T10:05:06.922Z,7.27
2023-03-06T10:07:56.128Z,7.33
2023-03-06T10:10:48.421Z,7.63
2023-03-06T10:13:40.340Z,7.37
2023-03-06T10:16:28.082Z,6.67
2023-03-06T10:19:16.059Z,6.73
2023-03-06T10:22:04.491Z,7.03
2023-03-06T10:24:55.859Z,7.60
2023-03-06T10:27:47.944Z,6.63
2023-03-06T10:30:42.601Z,7.03
2023-03-06T10:33:39.536Z,6.60
2023-03-06T10:36:27.170Z,7.00
2023-03-06T10:39:17.821Z,7.63
2023-03-06T10:42:01.997Z,6.97
2023-03-06T10:44:47.710Z,6.83
2023-03-06T10:47:35.375Z,7.73
2023-03-06T10:50:26.343Z,7.90
2023-03-06T10:53:21.752Z,8.70
2023-03-06T10:56:06.277Z,9.20
2023-03-06T10:59:10.717Z,9.67
2023-03-06T11:01:57.666Z,8.83
2023-03-06T11:04:47.158Z,9.67
2023-03-06T11:07:32.381Z,8.67
2023-03-06T11:10:19.451Z,9.10
2023-03-06T11:13:07.726Z,9.07
2023-03-06T11:15:59.419Z,8.50
2023-03-06T11:18:57.244Z,8.07
2023-03-06T11:21:41.562Z,8.20
2023-03-06T11:24:25.726Z,8.60
2023-03-06T11:27:22.769Z,8.97
2023-03-06T11:30:12.704Z,9.40
2023-03-06T11:33:00.726Z,9.30
2023-03-06T11:35:53.158Z,10.03
2023-03-06T11:38:44.036Z,8.97
2023-03-06T11:41:35.611Z,9.37
2023-03-06T11:44:27.259Z,9.83
2023-03-06T11:47:18.929Z,9.17
2023-03-06T11:50:16.374Z,9.20
2023-03-06T11:53:03.577Z,11.53
2023-03-06T11:55:57.156Z,9.07
2023-03-06T11:59:10.785Z,18.23
2023-03-06T12:02:05.217Z,9.57
2023-03-06T12:04:57.023Z,11.00
2023-03-06T12:07:50.786Z,11.30
2023-03-06T12:10:41.527Z,10.03
2023-03-06T12:13:42.091Z,11.33
2023-03-06T12:17:04.153Z,10.17
2023-03-06T12:19:59.780Z,9.73
2023-03-06T12:22:57.757Z,11.00
2023-03-06T12:25:57.846Z,10.53
2023-03-06T12:29:03.785Z,10.00
2023-03-06T12:31:59.521Z,11.03
2023-03-06T12:34:58.461Z,11.23
2023-03-06T12:37:52.076Z,10.53
2023-03-06T12:40:52.575Z,10.07
2023-03-06T12:44:01.744Z,10.57
2023-03-06T12:46:48.539Z,10.27
2023-03-06T12:49:38.830Z,10.47
2023-03-06T12:53:01.058Z,10.37
2023-03-06T12:55:43.405Z,12.50
2023-03-06T12:58:55.683Z,11.87
2023-03-06T13:01:48.845Z,8.40
2023-03-06T13:04:53.293Z,9.77
2023-03-06T13:08:00.074Z,8.77
2023-03-06T13:10:49.528Z,8.60
2023-03-06T13:13:35.438Z,8.73
2023-03-06T13:16:29.686Z,9.07
2023-03-06T13:19:19.563Z,8.40
2023-03-06T13:22:03.974Z,8.70
2023-03-06T13:24:49.469Z,8.23
2023-03-06T13:28:03.269Z,7.50
2023-03-06T13:30:47.458Z,9.17
2023-03-06T13:33:55.423Z,8.90
2023-03-06T13:36:39.906Z,9.50
2023-03-06T13:39:23.852Z,7.93
2023-03-06T13:42:08.287Z,8.13
2023-03-06T13:44:53.167Z,7.43
2023-03-06T13:48:10.668Z,7.13
2023-03-06T13:50:50.057Z,7.60
2023-03-06T13:54:04.958Z,6.80
2023-03-06T13:57:22.892Z,6.63
2023-03-06T14:00:29.513Z,7.07
2023-03-06T14:03:39.008Z,6.97
2023-03-06T14:06:59.054Z,6.43
2023-03-06T14:09:46.815Z,7.03
2023-03-06T14:12:34.973Z,7.03
2023-03-06T14:15:22.210Z,5.70
2023-03-06T14:18:08.432Z,5.60
2023-03-06T14:20:57.200Z,5.53
2023-03-06T14:23:43.556Z,5.60
2023-03-06T14:26:32.549Z,5.87
2023-03-06T14:29:22.242Z,4.83
2023-03-06T14:32:12.252Z,5.17
2023-03-06T14:34:56.510Z,6.30
2023-03-06T14:37:40.398Z,5.03
2023-03-06T14:40:31.175Z,5.10
2023-03-06T14:43:21.559Z,6.10
2023-03-06T14:46:07.401Z,5.87
2023-03-06T14:48:51.464Z,5.73
2023-03-06T14:51:41.911Z,6.33
2023-03-06T14:54:29.063Z,5.93
2023-03-06T14:57:16.568Z,5.00
2023-03-06T15:00:02.365Z,5.83
2023-03-06T15:02:48.133Z,6.10
2023-03-06T15:05:32.700Z,6.30
2023-03-06T15:08:21.850Z,5.60
2023-03-06T15:11:08.359Z,6.70
2023-03-06T15:14:02.761Z,5.83
2023-03-06T15:16:47.936Z,6.10
2023-03-06T15:19:40.649Z,5.93
2023-03-06T15:22:29.202Z,5.87
2023-03-06T15:25:26.803Z,6.40
2023-03-06T15:28:27.105Z,5.87
2023-03-06T15:31:23.012Z,6.37
2023-03-06T15:34:29.487Z,6.97
2023-03-06T15:37:29.022Z,6.00
2023-03-06T15:40:19.437Z,6.03
2023-03-06T15:43:03.889Z,6.23
2023-03-06T15:45:48.051Z,6.80
2023-03-06T15:48:32.060Z,6.17
2023-03-06T15:51:17.373Z,6.73
2023-03-06T15:54:11.828Z,6.50
2023-03-06T15:56:56.520Z,7.57
2023-03-06T15:59:44.200Z,6.63
2023-03-06T16:02:28.167Z,6.53
2023-03-06T16:05:16.392Z,6.53
2023-03-06T16:08:01.861Z,6.30
2023-03-06T16:10:46.957Z,11.13
2023-03-06T16:13:30.941Z,9.40
2023-03-06T16:16:19.452Z,10.40
2023-03-06T16:19:04.940Z,15.43
2023-03-06T16:21:49.042Z,15.73
2023-03-06T16:24:34.130Z,14.33
2023-03-06T16:27:19.892Z,9.80
2023-03-06T16:30:04.061Z,11.30
2023-03-06T16:32:48.148Z,24.53
2023-03-06T16:35:32.017Z,17.17
2023-03-06T16:38:16.844Z,10.63
2023-03-06T16:41:02.006Z,13.93
2023-03-06T16:43:45.989Z,12.93
2023-03-06T16:46:30.736Z,14.53
2023-03-06T16:49:22.510Z,16.83
2023-03-06T16:52:07.768Z,17.13
2023-03-06T16:54:51.527Z,11.20
2023-03-06T16:57:36.760Z,12.87
2023-03-06T17:00:22.415Z,13.50
2023-03-06T17:03:06.349Z,21.40
2023-03-06T17:05:50.597Z,16.77
2023-03-06T17:08:34.607Z,13.90
2023-03-06T17:11:20.401Z,16.50
2023-03-06T17:14:06.217Z,13.40
2023-03-06T17:16:50.060Z,30.17
2023-03-06T17:19:33.801Z,19.73
2023-03-06T17:22:18.141Z,21.53
2023-03-06T17:25:02.456Z,25.00
2023-03-06T17:27:47.214Z,14.30
2023-03-06T17:30:32.894Z,33.80
2023-03-06T17:33:16.760Z,20.07
2023-03-06T17:36:01.907Z,25.77
2023-03-06T17:38:46.341Z,25.43
2023-03-06T17:41:32.868Z,24.37
2023-03-06T17:44:17.246Z,12.83
2023-03-06T17:47:02.501Z,23.33
2023-03-06T17:49:46.836Z,14.40
2023-03-06T17:52:30.804Z,16.77
2023-03-06T17:55:14.639Z,21.30
2023-03-06T17:57:58.431Z,21.07
2023-03-06T18:00:42.693Z,16.00
2023-03-06T18:03:28.225Z,14.03
2023-03-06T18:06:12.453Z,19.77
2023-03-06T18:08:56.339Z,19.47
2023-03-06T18:11:40.123Z,18.23
2023-03-06T18:14:24.692Z,17.73
2023-03-06T18:17:09.045Z,18.30
2023-03-06T18:19:56.830Z,15.80
2023-03-06T18:22:40.709Z,16.80
2023-03-06T18:25:24.583Z,18.70
2023-03-06T18:28:08.535Z,22.47
2023-03-06T18:30:52.512Z,17.37
2023-03-06T18:33:36.768Z,23.07
2023-03-06T18:36:24.265Z,22.87
2023-03-06T18:39:10.039Z,18.63
2023-03-06T18:41:54.029Z,18.93
2023-03-06T18:44:37.815Z,16.20
2023-03-06T18:47:21.893Z,23.60
2023-03-06T18:50:06.402Z,11.07
2023-03-06T18:52:52.142Z,13.13
2023-03-06T18:55:36.019Z,13.17
2023-03-06T18:58:20.038Z,16.67
2023-03-06T19:01:07.804Z,26.23
2023-03-06T19:03:51.805Z,23.43
2023-03-06T19:06:37.983Z,19.47
2023-03-06T19:09:23.403Z,16.53
2023-03-06T19:12:08.907Z,20.63
2023-03-06T19:14:52.918Z,21.47
2023-03-06T19:17:37.856Z,18.43
2023-03-06T19:20:21.912Z,20.47
2023-03-06T19:23:05.679Z,22.07
2023-03-06T19:25:58.791Z,23.70
2023-03-06T19:28:43.961Z,18.87
2023-03-06T19:31:29.476Z,17.50
2023-03-06T19:34:13.405Z,13.57
2023-03-06T19:36:57.392Z,15.80
2023-03-06T19:39:41.698Z,13.50
2023-03-06T19:42:27.337Z,17.67
2023-03-06T19:45:11.700Z,26.40
2023-03-06T19:48:00.822Z,26.47
2023-03-06T19:50:44.824Z,27.50
2023-03-06T19:53:28.528Z,15.77
2023-03-06T19:56:17.195Z,14.47
2023-03-06T19:59:02.732Z,15.00
2023-03-06T20:01:46.591Z,14.63
2023-03-06T20:04:33.015Z,12.73
2023-03-06T20:07:16.985Z,23.37
2023-03-06T20:10:02.704Z,17.73
2023-03-06T20:12:46.949Z,14.33
2023-03-06T20:15:35.172Z,15.30
2023-03-06T20:18:19.240Z,12.30
2023-03-06T20:21:05.187Z,8.80
2023-03-06T20:23:51.097Z,11.03
2023-03-06T20:26:36.858Z,14.50
2023-03-06T20:29:21.096Z,14.00
2023-03-06T20:32:06.561Z,18.33
2023-03-06T20:34:50.423Z,13.33
2023-03-06T20:37:34.391Z,11.60
2023-03-06T20:40:18.492Z,9.80
2023-03-06T20:43:02.330Z,8.50
2023-03-06T20:45:57.400Z,9.20
2023-03-06T20:48:43.483Z,11.80
2023-03-06T20:51:30.425Z,9.63
2023-03-06T20:54:17.290Z,11.07
2023-03-06T20:57:01.317Z,8.67
2023-03-06T20:59:45.161Z,9.90
2023-03-06T21:02:28.895Z,10.53
2023-03-06T21:05:14.422Z,10.43
2023-03-06T21:07:58.141Z,9.40
2023-03-06T21:10:41.846Z,9.77
2023-03-06T21:13:25.802Z,11.47
2023-03-06T21:16:12.333Z,9.03
2023-03-06T21:18:57.107Z,9.30
2023-03-06T21:21:42.424Z,9.00
2023-03-06T21:24:26.218Z,10.00
2023-03-06T21:27:10.062Z,9.50
2023-03-06T21:29:53.783Z,10.13
2023-03-06T21:32:37.720Z,11.47
2023-03-06T21:35:21.791Z,11.87
2023-03-06T21:38:07.030Z,10.10
2023-03-06T21:40:50.786Z,9.23
2023-03-06T21:43:34.512Z,9.53
2023-03-06T21:46:18.356Z,10.23
2023-03-06T21:49:04.545Z,13.67
2023-03-06T21:51:48.367Z,10.53
2023-03-06T21:54:33.495Z,11.47
2023-03-06T21:57:17.288Z,11.50
2023-03-06T22:00:01.121Z,10.50
2023-03-06T22:02:45.369Z,10.90
2023-03-06T22:05:29.105Z,9.27
2023-03-06T22:08:12.823Z,11.73
2023-03-06T22:10:58.031Z,12.80
2023-03-06T22:13:42.470Z,10.43
2023-03-06T22:16:26.457Z,11.33
2023-03-06T22:19:10.301Z,10.67
2023-03-06T22:21:53.960Z,10.13
2023-03-06T22:24:37.746Z,10.47
2023-03-06T22:27:22.835Z,10.70
2023-03-06T22:30:07.759Z,12.70
2023-03-06T22:32:53.683Z,11.90
2023-03-06T22:35:37.487Z,10.60
2023-03-06T22:38:21.206Z,10.80
2023-03-06T22:41:05.644Z,11.53
2023-03-06T22:43:50.852Z,12.70
2023-03-06T22:46:34.709Z,13.53
2023-03-06T22:49:19.114Z,13.10
2023-03-06T22:52:02.849Z,16.43
2023-03-06T22:54:46.913Z,12.53
2023-03-06T22:57:31.043Z,13.63
2023-03-06T23:00:17.109Z,15.20
2023-03-06T23:03:01.280Z,15.53
2023-03-06T23:05:45.088Z,13.70
2023-03-06T23:08:28.890Z,13.07
2023-03-06T23:11:14.172Z,15.47
2023-03-06T23:14:17.831Z,15.20
2023-03-06T23:17:21.604Z,14.37
2023-03-06T23:20:24.435Z,15.63
2023-03-06T23:23:27.096Z,17.17
2023-03-06T23:26:14.648Z,17.53
2023-03-06T23:28:59.367Z,16.50
2023-03-06T23:31:43.189Z,16.10
2023-03-06T23:34:28.631Z,14.73
2023-03-06T23:37:12.393Z,15.10
2023-03-06T23:39:56.492Z,15.97
2023-03-06T23:42:40.481Z,15.50
2023-03-06T23:45:24.690Z,16.17
2023-03-06T23:48:09.278Z,15.67
2023-03-06T23:50:54.471Z,15.13
2023-03-06T23:53:38.108Z,15.37
2023-03-06T23:56:21.878Z,14.80
2023-03-06T23:59:05.774Z,13.97
